Time;durP1;ratioP1;P1;durP2;ratioP2;P2;SDS_P1;SDS_P2;PMS_P1;PMS_P2;Temp;Humidity;BMP_temperature;BMP_pressure;BME280_temperature;BME280_humidity;BME280_pressure;Samples;Min_cycle;Max_cycle;Signal;HPM_P1;HPM_P2
2023/01/23 00:01:49;;;;;;;11.95;6.50;;;;;;;1.98;69.62;98728.03;5008938;28;20028;-65
2023/01/23 00:04:15;;;;;;;11.38;6.85;;;;;;;2.06;68.71;98735.28;5024264;28;20706;-64
2023/01/23 00:06:41;;;;;;;12.27;7.97;;;;;;;1.96;69.97;98739.31;5022297;28;20035;-65
2023/01/23 00:09:07;;;;;;;11.75;7.50;;;;;;;1.94;70.32;98741.94;5024130;28;20025;-63
2023/01/23 00:11:33;;;;;;;12.15;7.38;;;;;;;1.81;70.27;98728.19;5006861;28;20848;-64
2023/01/23 00:14:00;;;;;;;12.80;7.28;;;;;;;1.83;70.40;98734.03;5021709;28;20151;-64
2023/01/23 00:16:30;;;;;;;12.00;7.20;;;;;;;1.91;70.35;98739.56;5039614;28;20061;-64
2023/01/23 00:18:57;;;;;;;12.57;7.68;;;;;;;1.81;70.01;98734.13;5005170;28;20056;-64
2023/01/23 00:21:25;;;;;;;11.35;6.55;;;;;;;1.82;70.13;98725.50;5031964;28;20033;-64
2023/01/23 00:23:55;;;;;;;12.30;7.18;;;;;;;1.78;69.41;98729.16;5024837;28;20039;-64
2023/01/23 00:26:23;;;;;;;11.10;7.20;;;;;;;1.83;69.22;98731.47;5024038;28;20037;-64
2023/01/23 00:28:49;;;;;;;11.45;6.57;;;;;;;1.89;68.46;98731.13;5042020;28;20083;-66
2023/01/23 00:31:29;;;;;;;11.13;6.50;;;;;;;1.98;68.00;98733.16;5010481;28;20061;-65
2023/01/23 00:33:57;;;;;;;10.18;6.10;;;;;;;2.01;66.89;98725.31;5023804;28;20651;-64
2023/01/23 00:36:23;;;;;;;10.70;6.88;;;;;;;2.00;67.61;98733.09;5025618;28;20125;-64
2023/01/23 00:38:49;;;;;;;9.77;6.18;;;;;;;1.89;67.76;98693.47;5024906;28;20029;-63
2023/01/23 00:41:15;;;;;;;9.40;5.75;;;;;;;2.10;68.25;98727.34;5030259;28;20032;-64
2023/01/23 00:43:41;;;;;;;11.63;7.28;;;;;;;2.04;69.58;98714.03;5037410;28;20032;-63
2023/01/23 00:46:07;;;;;;;12.75;7.45;;;;;;;1.90;69.59;98718.22;5028232;28;20106;-63
2023/01/23 00:48:33;;;;;;;12.15;6.78;;;;;;;1.86;69.63;98724.44;5023546;28;20078;-64
2023/01/23 00:50:58;;;;;;;11.05;7.15;;;;;;;1.56;70.00;98680.84;5020022;28;20033;-64
2023/01/23 00:53:24;;;;;;;10.85;6.55;;;;;;;1.56;70.42;98680.84;5006889;28;20088;-63
2023/01/23 00:55:49;;;;;;;11.27;6.18;;;;;;;1.78;70.46;98712.97;5019152;28;20033;-64
2023/01/23 00:58:15;;;;;;;9.95;6.07;;;;;;;1.72;71.69;98711.56;5038023;28;20029;-64
2023/01/23 01:00:40;;;;;;;11.82;7.45;;;;;;;1.47;71.67;98664.25;5037436;28;20168;-63
2023/01/23 01:03:07;;;;;;;9.13;6.18;;;;;;;1.77;72.41;98701.03;5023961;28;20033;-63
2023/01/23 01:05:33;;;;;;;10.93;6.82;;;;;;;1.71;73.00;98715.03;5015893;28;20128;-64
2023/01/23 01:07:58;;;;;;;11.48;6.32;;;;;;;1.59;73.44;98708.03;5020626;28;20131;-64
2023/01/23 01:10:28;;;;;;;11.48;6.82;;;;;;;1.65;73.57;98705.13;5019567;28;20040;-64
2023/01/23 01:12:57;;;;;;;10.52;6.40;;;;;;;1.61;73.68;98701.09;5007852;28;20041;-64
2023/01/23 01:15:23;;;;;;;11.50;6.70;;;;;;;1.55;73.84;98702.25;5004738;28;20033;-64
2023/01/23 01:17:49;;;;;;;12.15;7.35;;;;;;;1.55;72.58;98704.81;5009279;28;20033;-64
2023/01/23 01:20:14;;;;;;;9.40;5.38;;;;;;;1.61;70.70;98699.34;5039340;28;20033;-63
2023/01/23 01:22:40;;;;;;;11.13;6.80;;;;;;;1.68;70.15;98704.94;5030832;28;20094;-63
2023/01/23 01:25:06;;;;;;;11.32;6.28;;;;;;;1.67;69.68;98698.19;5036988;28;20111;-63
2023/01/23 01:27:31;;;;;;;9.45;5.38;;;;;;;1.37;68.73;98646.91;5022416;28;20041;-63
2023/01/23 01:29:57;;;;;;;11.18;6.43;;;;;;;1.69;68.04;98710.00;5036088;28;20040;-63
2023/01/23 01:32:23;;;;;;;13.07;5.60;;;;;;;1.70;67.38;98691.16;5022853;28;20492;-63
2023/01/23 01:34:50;;;;;;;9.18;5.60;;;;;;;1.68;68.05;98687.84;5005326;28;20710;-63
2023/01/23 01:37:16;;;;;;;10.20;5.93;;;;;;;1.66;68.19;98688.81;5025259;28;20025;-63
2023/01/23 01:39:41;;;;;;;10.27;6.07;;;;;;;1.59;68.15;98667.00;5007833;28;20033;-64
2023/01/23 01:42:07;;;;;;;9.90;5.43;;;;;;;1.64;68.36;98675.28;5022498;28;20029;-64
2023/01/23 01:44:52;;;;;;;10.02;5.70;;;;;;;1.71;68.53;98679.97;5037651;28;20060;-63
2023/01/23 01:47:17;;;;;;;10.88;6.20;;;;;;;1.60;69.27;98666.94;5013379;28;20055;-63
2023/01/23 01:49:43;;;;;;;11.52;5.82;;;;;;;1.65;69.29;98679.50;5031694;28;20542;-64
2023/01/23 01:52:10;;;;;;;10.45;6.32;;;;;;;1.59;69.51;98664.44;5029611;28;20044;-63
2023/01/23 01:55:03;;;;;;;10.75;5.88;;;;;;;1.67;68.79;98668.25;5034521;28;20079;-64
2023/01/23 01:57:34;;;;;;;11.63;6.18;;;;;;;1.65;68.81;98661.56;5018233;28;20045;-63
2023/01/23 02:00:06;;;;;;;10.25;5.18;;;;;;;1.67;69.31;98660.56;5012981;28;20037;-64
2023/01/23 02:02:51;;;;;;;9.80;5.80;;;;;;;1.62;70.39;98659.97;5018837;28;20033;-65
2023/01/23 02:05:25;;;;;;;10.85;5.93;;;;;;;1.52;70.56;98657.13;5022877;28;20091;-65
2023/01/23 02:07:56;;;;;;;9.45;5.18;;;;;;;1.46;70.38;98646.38;5019347;28;20029;-62
2023/01/23 02:10:22;;;;;;;10.00;5.70;;;;;;;1.46;69.77;98646.38;5024874;28;20467;-64
2023/01/23 02:12:49;;;;;;;8.45;4.88;;;;;;;1.48;70.19;98642.84;5024998;28;20025;-65
2023/01/23 02:15:15;;;;;;;9.93;5.18;;;;;;;1.27;70.20;98611.56;5038050;28;20033;-64
2023/01/23 02:17:42;;;;;;;9.63;5.82;;;;;;;1.20;70.03;98602.56;5008261;28;20044;-64
2023/01/23 02:20:20;;;;;;;8.63;5.32;;;;;;;1.49;70.09;98651.34;5017994;28;20053;-65
2023/01/23 02:22:49;;;;;;;9.73;5.20;;;;;;;1.48;70.06;98647.97;5038571;28;20108;-63
2023/01/23 02:25:46;;;;;;;9.27;4.93;;;;;;;1.44;70.08;98646.50;5044088;28;20075;-64
2023/01/23 02:28:13;;;;;;;9.55;5.63;;;;;;;1.47;70.07;98661.69;5013881;28;20033;-64
2023/01/23 02:30:41;;;;;;;10.25;5.55;;;;;;;1.49;69.75;98659.84;5025684;28;20029;-64
2023/01/23 02:33:20;;;;;;;8.50;4.80;;;;;;;1.55;69.54;98661.22;5022443;28;20044;-65
2023/01/23 02:35:47;;;;;;;10.02;5.55;;;;;;;1.52;68.81;98664.81;5035094;28;20056;-65
2023/01/23 02:38:13;;;;;;;8.93;5.25;;;;;;;1.51;68.25;98659.75;5004203;28;20029;-64
2023/01/23 02:40:40;;;;;;;9.15;4.97;;;;;;;1.31;67.72;98620.75;5023043;28;20500;-64
2023/01/23 02:43:12;;;;;;;9.07;5.30;;;;;;;1.57;67.60;98668.84;5036052;28;20057;-64
2023/01/23 02:45:38;;;;;;;9.50;4.55;;;;;;;1.13;66.29;98589.28;5022001;28;20175;-66
2023/01/23 02:48:05;;;;;;;10.32;5.72;;;;;;;1.64;65.54;98670.16;5007650;28;20105;-64
2023/01/23 02:50:31;;;;;;;8.68;4.78;;;;;;;1.38;65.59;98628.88;5025276;28;20030;-64
2023/01/23 02:52:57;;;;;;;8.70;4.82;;;;;;;1.59;65.07;98670.44;5013994;28;20040;-64
2023/01/23 02:55:25;;;;;;;9.60;4.53;;;;;;;1.64;64.70;98676.13;5007519;28;20032;-64
2023/01/23 02:57:51;;;;;;;9.63;5.13;;;;;;;1.74;65.85;98673.84;5026367;28;20566;-64
2023/01/23 03:00:21;;;;;;;8.25;4.47;;;;;;;1.85;65.27;98689.44;5022276;28;20480;-63
2023/01/23 03:02:48;;;;;;;9.48;5.15;;;;;;;1.65;65.15;98698.25;5040935;28;20467;-63
2023/01/23 03:05:13;;;;;;;7.53;3.88;;;;;;;1.68;65.32;98703.22;5025095;28;20037;-64
2023/01/23 03:07:39;;;;;;;9.73;5.18;;;;;;;1.80;65.88;98700.88;5041137;28;20102;-64
2023/01/23 03:10:08;;;;;;;9.60;4.65;;;;;;;1.82;67.40;98699.03;5037649;28;20055;-66
2023/01/23 03:12:34;;;;;;;;;;;;;;;1.81;70.37;98697.41;5036831;28;20040;-63
2023/01/23 03:15:00;;;;;;;8.20;4.97;;;;;;;1.80;72.19;98690.63;5022953;28;20007;-63
2023/01/23 03:17:27;;;;;;;8.77;4.50;;;;;;;1.85;72.44;98678.38;5024946;28;20020;-64
2023/01/23 03:19:54;;;;;;;9.60;5.28;;;;;;;1.73;73.02;98673.03;5020213;28;20558;-64
2023/01/23 03:22:20;;;;;;;10.48;5.70;;;;;;;1.75;74.33;98674.66;5023411;28;20051;-63
2023/01/23 03:24:45;;;;;;;9.43;5.32;;;;;;;1.73;75.85;98672.19;5020676;28;20052;-63
2023/01/23 03:27:11;;;;;;;11.82;5.97;;;;;;;1.60;76.47;98661.00;5009431;28;20464;-63
2023/01/23 03:32:21;;;;;;;10.10;5.28;;;;;;;1.50;70.91;98671.75;5016847;28;20043;-63
2023/01/23 03:34:46;;;;;;;8.65;5.00;;;;;;;1.60;72.72;98666.94;5011209;28;20025;-64
2023/01/23 03:37:13;;;;;;;8.52;4.57;;;;;;;1.44;74.12;98667.00;5013045;28;20013;-61
2023/01/23 03:42:23;;;;;;;8.95;5.13;;;;;;;1.44;75.94;98640.53;5025185;28;20040;-64
2023/01/23 03:44:51;;;;;;;8.52;4.82;;;;;;;1.51;74.63;98644.38;5007363;28;20020;-64
2023/01/23 03:47:17;;;;;;;7.93;4.03;;;;;;;1.45;72.92;98643.00;5006868;28;20025;-64
2023/01/23 03:49:42;;;;;;;8.75;4.40;;;;;;;1.48;71.96;98640.28;5026214;28;20021;-64
2023/01/23 03:52:08;;;;;;;8.68;4.82;;;;;;;1.40;71.11;98636.50;5024601;28;20025;-64
2023/01/23 03:54:34;;;;;;;7.65;4.38;;;;;;;1.42;71.83;98621.84;5021311;28;20588;-64
2023/01/23 03:56:59;;;;;;;9.27;5.35;;;;;;;1.10;72.13;98591.19;5045093;28;20021;-62
2023/01/23 03:59:25;;;;;;;8.65;4.55;;;;;;;1.30;72.65;98618.25;5042760;28;20738;-62
2023/01/23 04:01:50;;;;;;;8.68;4.50;;;;;;;1.32;72.15;98627.50;5028629;28;20131;-62
2023/01/23 04:04:16;;;;;;;7.35;4.03;;;;;;;1.12;71.53;98563.75;5009294;28;20068;-63
2023/01/23 04:06:42;;;;;;;7.70;4.15;;;;;;;1.47;71.53;98630.09;5041382;28;20080;-62
2023/01/23 04:09:08;;;;;;;8.35;4.43;;;;;;;1.37;71.94;98623.84;5038951;28;20033;-63
2023/01/23 04:11:33;;;;;;;9.02;4.55;;;;;;;1.43;72.29;98624.31;5037820;28;20380;-63
2023/01/23 04:13:59;;;;;;;7.88;4.53;;;;;;;1.42;71.60;98620.09;5022391;28;20048;-61
2023/01/23 04:16:26;;;;;;;9.48;4.78;;;;;;;1.40;71.36;98621.13;5044086;28;20032;-63
2023/01/23 04:18:53;;;;;;;7.85;4.20;;;;;;;1.34;72.14;98607.72;5022620;28;20514;-63
2023/01/23 04:21:19;;;;;;;10.68;4.80;;;;;;;1.31;72.09;98599.41;5033538;28;20048;-63
2023/01/23 04:23:44;;;;;;;8.85;4.60;;;;;;;1.39;71.57;98601.50;5033664;28;20049;-63
2023/01/23 04:26:10;;;;;;;7.55;4.18;;;;;;;1.43;71.81;98603.00;5021498;28;20108;-63
2023/01/23 04:28:36;;;;;;;7.35;4.00;;;;;;;1.49;72.28;98602.66;5021017;28;20043;-63
2023/01/23 04:31:01;;;;;;;7.10;3.85;;;;;;;1.43;71.07;98596.16;5030490;28;20049;-64
2023/01/23 04:33:26;;;;;;;6.72;3.75;;;;;;;1.34;69.63;98583.84;5017321;28;20037;-63
2023/01/23 04:35:59;;;;;;;7.15;3.42;;;;;;;1.42;69.10;98580.84;5017571;28;20193;-63
2023/01/23 04:38:26;;;;;;;7.85;3.50;;;;;;;1.44;69.36;98576.47;5007422;28;20052;-64
2023/01/23 04:40:53;;;;;;;4.15;2.08;;;;;;;1.43;68.53;98572.25;5025160;28;20821;-64
2023/01/23 04:43:19;;;;;;;6.90;3.40;;;;;;;1.42;67.43;98553.47;5005647;28;20095;-64
2023/01/23 04:45:45;;;;;;;5.63;3.05;;;;;;;1.51;66.41;98557.25;5028616;28;20037;-63
2023/01/23 04:48:11;;;;;;;6.70;3.22;;;;;;;1.42;66.34;98550.91;5023681;28;20580;-63
2023/01/23 04:50:37;;;;;;;5.45;2.50;;;;;;;1.51;66.98;98550.38;5023124;28;20013;-63
2023/01/23 04:53:04;;;;;;;6.63;3.17;;;;;;;1.23;66.50;98496.56;5004842;28;20043;-63
2023/01/23 04:55:29;;;;;;;9.15;3.88;;;;;;;1.51;67.58;98541.88;5005792;28;20391;-63
2023/01/23 04:57:55;;;;;;;5.88;2.70;;;;;;;1.57;68.62;98538.97;5018411;28;20046;-63
2023/01/23 05:00:20;;;;;;;6.85;2.97;;;;;;;1.28;66.96;98492.00;5019269;28;20029;-64
2023/01/23 05:02:47;;;;;;;6.70;3.13;;;;;;;1.47;66.12;98523.28;5014922;28;20037;-64
2023/01/23 05:05:13;;;;;;;6.55;3.20;;;;;;;1.53;66.57;98527.25;5017927;28;20052;-64
2023/01/23 05:07:40;;;;;;;7.00;3.83;;;;;;;1.52;66.99;98530.72;5009384;28;20053;-63
2023/01/23 05:10:06;;;;;;;5.60;3.15;;;;;;;1.54;67.19;98527.16;5018690;28;20094;-63
2023/01/23 05:12:33;;;;;;;7.93;3.25;;;;;;;1.49;67.18;98513.78;5015667;28;20158;-64
2023/01/23 05:14:58;;;;;;;6.30;2.85;;;;;;;1.48;67.19;98522.41;5015748;28;20063;-64
2023/01/23 05:17:23;;;;;;;6.47;3.10;;;;;;;1.50;67.47;98524.88;5022533;28;20052;-64
2023/01/23 05:19:49;;;;;;;7.97;3.60;;;;;;;1.52;67.22;98515.34;5040573;28;20084;-63
2023/01/23 05:22:14;;;;;;;8.27;3.30;;;;;;;1.58;69.30;98514.97;5035276;28;20488;-64
2023/01/23 05:24:40;;;;;;;7.78;3.13;;;;;;;1.48;67.68;98488.25;5023362;28;20029;-64
2023/01/23 05:27:05;;;;;;;6.40;2.90;;;;;;;1.30;67.63;98467.91;5008879;28;20118;-63
2023/01/23 05:29:31;;;;;;;6.68;3.20;;;;;;;1.56;67.24;98493.75;5031901;28;20032;-65
2023/01/23 05:31:56;;;;;;;5.88;2.90;;;;;;;1.53;65.79;98487.06;5037513;28;20431;-63
2023/01/23 05:34:22;;;;;;;5.28;2.63;;;;;;;1.62;65.31;98485.69;5022227;28;20060;-63
2023/01/23 05:36:47;;;;;;;6.07;2.97;;;;;;;1.67;66.42;98483.69;5014523;28;20041;-64
2023/01/23 05:39:13;;;;;;;6.90;2.75;;;;;;;1.57;66.10;98485.16;5021549;28;20396;-62
2023/01/23 05:41:38;;;;;;;5.78;2.72;;;;;;;1.52;66.92;98474.34;5039348;28;20977;-62
2023/01/23 05:44:04;;;;;;;6.47;2.72;;;;;;;1.57;66.66;98469.78;5024166;28;20820;-63
2023/01/23 05:46:30;;;;;;;6.80;2.78;;;;;;;1.62;64.68;98466.94;5042865;28;20376;-63
2023/01/23 05:48:55;;;;;;;7.50;3.00;;;;;;;1.65;64.66;98465.00;5013380;28;20039;-63
2023/01/23 05:51:22;;;;;;;7.50;3.45;;;;;;;1.64;65.57;98457.41;5033987;28;20052;-63
2023/01/23 05:53:47;;;;;;;5.85;3.03;;;;;;;1.60;64.26;98453.38;5022989;28;20031;-63
2023/01/23 05:56:13;;;;;;;5.85;2.78;;;;;;;1.69;61.76;98456.22;5021361;28;20025;-64
2023/01/23 05:58:38;;;;;;;8.02;2.60;;;;;;;1.76;60.64;98450.72;5025064;28;20043;-63
2023/01/23 06:01:04;;;;;;;5.05;2.55;;;;;;;1.83;61.13;98457.94;5025259;28;20029;-63
2023/01/23 06:03:30;;;;;;;5.63;2.65;;;;;;;1.79;61.14;98448.81;5019998;28;20033;-63
2023/01/23 06:05:55;;;;;;;4.68;2.10;;;;;;;1.80;61.49;98445.31;5027074;28;20029;-64
2023/01/23 06:08:23;;;;;;;5.93;2.70;;;;;;;1.43;62.95;98400.59;5038190;28;20040;-64
2023/01/23 06:10:48;;;;;;;5.20;2.70;;;;;;;1.52;62.37;98403.41;5013299;28;20025;-64
2023/01/23 06:13:14;;;;;;;5.90;2.67;;;;;;;1.39;64.65;98387.13;5009495;28;20078;-64
2023/01/23 06:15:40;;;;;;;4.85;2.35;;;;;;;1.64;65.34;98445.44;5020726;28;20633;-64
2023/01/23 06:18:06;;;;;;;6.60;3.10;;;;;;;1.60;66.02;98438.81;5024856;28;20021;-64
2023/01/23 06:20:32;;;;;;;6.18;2.70;;;;;;;1.58;64.36;98417.59;5028665;28;20041;-64
2023/01/23 06:22:58;;;;;;;5.45;2.25;;;;;;;1.65;64.14;98418.06;5037413;28;20025;-65
2023/01/23 06:25:23;;;;;;;6.72;3.08;;;;;;;1.71;64.30;98436.44;5035828;28;20452;-63
2023/01/23 06:27:49;;;;;;;6.20;2.70;;;;;;;1.76;61.20;98415.66;5021891;28;20033;-64
2023/01/23 06:30:14;;;;;;;5.75;2.47;;;;;;;1.81;60.67;98428.19;5038887;28;20041;-63
2023/01/23 06:32:40;;;;;;;5.68;2.30;;;;;;;1.82;59.82;98427.28;5008420;28;20021;-63
2023/01/23 06:35:06;;;;;;;4.85;2.20;;;;;;;1.58;60.42;98383.47;5011595;28;20041;-64
2023/01/23 06:37:31;;;;;;;6.40;2.53;;;;;;;1.83;58.36;98414.38;5036914;28;20036;-64
2023/01/23 06:39:56;;;;;;;5.82;2.42;;;;;;;1.85;60.19;98402.25;5021384;28;20384;-63
2023/01/23 06:42:22;;;;;;;4.18;1.80;;;;;;;1.83;59.90;98393.84;5023187;28;20068;-63
2023/01/23 06:44:47;;;;;;;4.75;2.08;;;;;;;1.90;59.50;98415.63;5032232;28;20041;-63
2023/01/23 06:47:14;;;;;;;5.10;2.40;;;;;;;1.89;58.28;98408.84;5027883;28;20502;-63
2023/01/23 06:49:40;;;;;;;4.22;1.55;;;;;;;2.09;56.94;98407.59;5022801;28;20399;-63
2023/01/23 06:52:05;;;;;;;5.38;2.30;;;;;;;2.05;58.79;98407.91;5024186;28;20079;-64
2023/01/23 06:54:31;;;;;;;4.85;2.10;;;;;;;2.07;58.34;98406.06;5006968;28;20507;-62
2023/01/23 06:56:56;;;;;;;5.45;2.58;;;;;;;1.96;59.27;98387.97;5018884;28;20510;-64
2023/01/23 06:59:22;;;;;;;4.63;2.20;;;;;;;1.91;60.71;98388.25;5038180;28;20036;-64
2023/01/23 07:01:47;;;;;;;5.00;2.38;;;;;;;2.00;59.68;98392.78;5024993;28;20749;-64
2023/01/23 07:04:13;;;;;;;4.95;2.25;;;;;;;1.96;60.59;98382.84;5025449;28;20112;-64
2023/01/23 07:06:39;;;;;;;5.07;2.42;;;;;;;1.61;61.49;98340.53;5003011;28;20025;-64
2023/01/23 07:09:05;;;;;;;4.20;1.75;;;;;;;1.87;60.75;98389.34;5004546;28;20039;-63
2023/01/23 07:11:31;;;;;;;5.95;2.80;;;;;;;1.87;61.69;98366.28;5026256;28;20033;-64
2023/01/23 07:13:57;;;;;;;4.50;1.83;;;;;;;1.52;60.99;98312.91;5003503;28;20404;-63
2023/01/23 07:16:24;;;;;;;5.25;2.38;;;;;;;2.01;60.81;98378.22;5032792;28;20032;-62
2023/01/23 07:18:49;;;;;;;5.25;2.05;;;;;;;2.01;61.44;98373.94;5021505;28;20039;-63
2023/01/23 07:21:15;;;;;;;4.50;2.35;;;;;;;2.07;59.48;98398.38;5033029;28;20395;-62
2023/01/23 07:23:40;;;;;;;5.97;2.47;;;;;;;2.17;56.33;98383.22;5023862;28;20037;-65
2023/01/23 07:26:08;;;;;;;4.47;1.92;;;;;;;2.23;56.66;98375.16;5033324;28;20029;-64
2023/01/23 07:28:35;;;;;;;4.45;1.73;;;;;;;2.32;56.37;98382.25;5019070;28;20024;-62
2023/01/23 07:31:01;;;;;;;4.60;2.15;;;;;;;2.22;57.46;98374.31;5021777;28;20024;-61
2023/01/23 07:33:27;;;;;;;6.95;2.47;;;;;;;2.22;58.38;98399.94;5006102;28;20518;-62
2023/01/23 07:35:53;;;;;;;6.20;2.03;;;;;;;2.25;58.97;98397.22;5032046;28;20671;-61
2023/01/23 07:38:18;;;;;;;5.03;2.15;;;;;;;2.27;59.73;98390.22;5022537;28;20530;-63
2023/01/23 07:40:44;;;;;;;5.50;2.35;;;;;;;1.73;59.76;98303.03;5018676;28;20024;-64
2023/01/23 07:43:10;;;;;;;4.78;2.38;;;;;;;2.33;59.82;98389.00;5015493;28;20026;-64
2023/01/23 07:45:36;;;;;;;4.95;2.10;;;;;;;2.43;57.53;98379.00;5019720;28;20029;-63
2023/01/23 07:48:02;;;;;;;5.55;1.98;;;;;;;2.57;57.19;98385.78;5010728;28;20108;-64
2023/01/23 07:50:28;;;;;;;5.10;2.20;;;;;;;2.57;57.01;98380.66;5019671;28;20027;-64
2023/01/23 07:52:53;;;;;;;4.55;1.88;;;;;;;2.69;57.03;98387.56;5017698;28;20017;-64
2023/01/23 07:55:19;;;;;;;5.35;2.50;;;;;;;2.60;59.79;98401.00;5015947;28;20029;-65
2023/01/23 07:57:44;;;;;;;4.65;2.28;;;;;;;2.58;58.21;98405.41;5007342;28;20025;-64
2023/01/23 08:00:10;;;;;;;5.38;2.20;;;;;;;2.66;56.36;98396.28;5016345;28;20330;-64
2023/01/23 08:02:37;;;;;;;4.65;2.13;;;;;;;2.78;56.45;98401.56;5004526;28;20831;-64
2023/01/23 08:05:04;;;;;;;4.68;2.22;;;;;;;2.68;57.72;98388.47;5013877;28;20017;-64
2023/01/23 08:07:30;;;;;;;5.05;2.28;;;;;;;2.52;57.20;98363.00;5027976;28;20033;-63
2023/01/23 08:09:55;;;;;;;4.57;2.10;;;;;;;2.73;56.78;98389.00;5021036;28;20031;-63
2023/01/23 08:12:21;;;;;;;5.85;2.40;;;;;;;2.73;56.27;98381.28;5032803;28;20034;-63
2023/01/23 08:14:47;;;;;;;6.40;2.45;;;;;;;2.77;54.92;98376.78;5034228;28;20029;-64
2023/01/23 08:17:12;;;;;;;4.90;2.03;;;;;;;2.89;54.61;98381.94;5036530;28;20033;-63
2023/01/23 08:19:38;;;;;;;5.47;2.22;;;;;;;2.97;54.30;98386.56;5030410;28;20051;-63
2023/01/23 08:22:04;;;;;;;3.83;1.48;;;;;;;3.07;54.59;98379.06;5016332;28;20031;-64
2023/01/23 08:24:29;;;;;;;5.32;2.30;;;;;;;3.04;55.65;98379.25;5014122;28;20152;-63
2023/01/23 08:26:55;;;;;;;5.07;2.22;;;;;;;2.97;57.02;98348.03;5027967;28;20392;-63
2023/01/23 08:29:21;;;;;;;4.72;2.28;;;;;;;2.73;58.77;98314.53;5034563;28;20035;-62
2023/01/23 08:31:46;;;;;;;6.82;2.42;;;;;;;3.03;58.39;98363.03;5016417;28;20040;-63
2023/01/23 08:34:12;;;;;;;4.55;1.90;;;;;;;3.14;56.11;98367.47;5015458;28;20021;-63
2023/01/23 08:36:38;;;;;;;5.25;2.28;;;;;;;3.23;53.62;98363.41;5000825;28;20032;-63
2023/01/23 08:39:04;;;;;;;4.28;1.88;;;;;;;3.29;53.15;98363.03;5025724;28;20040;-63
2023/01/23 08:41:29;;;;;;;5.15;2.15;;;;;;;3.26;53.10;98369.16;5004250;28;20104;-64
2023/01/23 08:43:57;;;;;;;5.88;2.40;;;;;;;3.39;52.70;98364.00;5018881;28;20053;-63
2023/01/23 08:46:22;;;;;;;5.03;2.25;;;;;;;3.46;52.30;98369.56;5034633;28;20021;-64
2023/01/23 08:48:48;;;;;;;4.28;1.85;;;;;;;3.49;53.85;98366.78;5040084;28;20033;-63
2023/01/23 08:51:13;;;;;;;5.25;2.15;;;;;;;3.51;55.16;98372.66;5016089;28;20025;-64
2023/01/23 08:53:42;;;;;;;4.85;2.00;;;;;;;3.54;56.04;98359.59;5032959;28;20032;-63
2023/01/23 08:56:14;;;;;;;4.30;1.92;;;;;;;3.65;56.04;98366.53;5040249;28;20621;-63
2023/01/23 08:58:41;;;;;;;5.43;2.28;;;;;;;3.61;57.21;98353.09;5020659;28;20044;-64
2023/01/23 09:01:15;;;;;;;5.72;2.10;;;;;;;3.62;55.05;98357.28;5003180;28;20033;-64
2023/01/23 09:03:41;;;;;;;4.50;2.03;;;;;;;3.60;56.93;98369.44;5015725;28;20055;-64
2023/01/23 09:06:06;;;;;;;5.70;2.50;;;;;;;3.57;58.17;98369.63;5019607;28;20021;-64
2023/01/23 09:08:33;;;;;;;5.70;2.30;;;;;;;3.58;56.86;98371.28;5011915;28;20125;-64
2023/01/23 09:11:03;;;;;;;4.85;2.25;;;;;;;3.66;57.85;98371.56;5037055;28;20108;-64
2023/01/23 09:13:29;;;;;;;6.43;2.40;;;;;;;3.60;57.51;98363.47;5018140;28;20037;-64
2023/01/23 09:15:54;;;;;;;5.10;2.33;;;;;;;3.42;57.47;98330.41;5035835;28;20545;-65
2023/01/23 09:18:21;;;;;;;6.32;2.72;;;;;;;3.62;56.79;98356.47;5030088;28;20037;-64
2023/01/23 09:20:48;;;;;;;5.70;2.17;;;;;;;3.71;57.57;98362.72;5036619;28;20035;-67
2023/01/23 09:23:14;;;;;;;6.05;2.50;;;;;;;3.77;58.45;98362.28;5023662;28;20133;-67
2023/01/23 09:25:39;;;;;;;6.57;2.60;;;;;;;3.76;58.10;98364.06;5014530;28;20943;-66
2023/01/23 09:28:05;;;;;;;6.07;2.85;;;;;;;3.79;58.13;98368.16;5015851;28;20060;-67
2023/01/23 09:30:31;;;;;;;5.70;2.78;;;;;;;3.78;56.60;98367.34;5022447;28;20122;-66
2023/01/23 09:32:57;;;;;;;5.47;2.72;;;;;;;3.56;58.30;98324.31;5024040;28;20033;-67
2023/01/23 09:35:23;;;;;;;6.13;2.65;;;;;;;3.89;55.88;98371.72;5013734;28;20925;-66
2023/01/23 09:37:59;;;;;;;5.78;2.40;;;;;;;3.93;55.60;98377.47;5005868;28;20110;-68
2023/01/23 09:40:28;;;;;;;6.72;2.70;;;;;;;3.96;54.98;98374.66;5015402;28;20053;-67
2023/01/23 09:42:58;;;;;;;6.40;2.80;;;;;;;3.93;55.51;98372.34;4997875;28;20156;-67
2023/01/23 09:45:42;;;;;;;5.40;2.20;;;;;;;4.03;55.68;98384.44;5012199;28;20124;-66
2023/01/23 09:48:29;;;;;;;6.00;2.83;;;;;;;4.12;55.49;98389.84;5006241;28;20605;-66
2023/01/23 09:51:01;;;;;;;6.20;2.67;;;;;;;3.95;55.17;98367.91;5022046;28;20079;-66
2023/01/23 09:53:33;;;;;;;5.72;2.58;;;;;;;4.06;55.26;98387.72;5005508;28;20140;-67
2023/01/23 09:56:03;;;;;;;6.25;2.78;;;;;;;3.82;55.51;98358.47;5007195;28;20029;-68
2023/01/23 09:59:15;;;;;;;5.38;2.70;;;;;;;4.13;55.11;98383.78;5013834;28;20491;-67
2023/01/23 10:01:40;;;;;;;6.18;2.70;;;;;;;4.21;54.98;98397.72;5006733;28;20065;-66
2023/01/23 10:04:10;;;;;;;9.23;3.22;;;;;;;4.20;55.42;98390.13;5021522;28;20539;-67
2023/01/23 10:06:51;;;;;;;6.40;2.58;;;;;;;4.24;54.86;98394.13;5023811;28;20036;-66
2023/01/23 10:09:22;;;;;;;6.80;2.60;;;;;;;4.20;54.63;98403.81;5022783;28;20025;-66
2023/01/23 10:12:12;;;;;;;5.20;2.60;;;;;;;4.27;54.61;98395.66;5025384;28;20567;-67
2023/01/23 10:14:57;;;;;;;5.28;2.30;;;;;;;4.37;52.70;98401.78;5005690;28;20083;-66
2023/01/23 10:18:01;;;;;;;6.38;2.90;;;;;;;4.43;53.14;98394.44;5007243;28;20043;-66
2023/01/23 10:20:50;;;;;;;7.10;3.08;;;;;;;4.53;52.99;98398.94;5022148;28;20033;-67
2023/01/23 10:23:29;;;;;;;9.30;2.78;;;;;;;4.57;52.31;98406.31;5021561;28;20033;-67
2023/01/23 10:25:54;;;;;;;6.30;3.10;;;;;;;4.60;51.83;98400.13;5022540;28;20035;-66
2023/01/23 10:28:25;;;;;;;6.20;2.97;;;;;;;4.61;52.04;98410.28;5015872;28;20029;-67
2023/01/23 10:30:55;;;;;;;7.28;3.40;;;;;;;4.63;51.86;98402.47;5024546;28;20204;-66
2023/01/23 10:33:32;;;;;;;6.47;2.88;;;;;;;4.50;51.50;98383.69;5009944;28;20037;-67
2023/01/23 10:36:04;;;;;;;5.30;2.42;;;;;;;4.70;50.56;98415.72;5013566;28;20202;-66
2023/01/23 10:38:32;;;;;;;6.28;2.75;;;;;;;4.73;50.85;98418.09;5025317;28;20451;-67
2023/01/23 10:41:13;;;;;;;8.40;2.53;;;;;;;4.73;50.93;98426.63;5028665;28;20122;-66
2023/01/23 10:43:41;;;;;;;6.50;2.85;;;;;;;4.76;50.99;98436.72;5017506;28;20087;-65
2023/01/23 10:46:15;;;;;;;7.43;2.88;;;;;;;4.50;52.24;98401.72;4996620;28;20056;-66
2023/01/23 10:48:49;;;;;;;6.47;2.60;;;;;;;4.74;51.18;98432.59;5014166;28;20121;-67
2023/01/23 10:51:31;;;;;;;7.20;2.90;;;;;;;4.71;50.73;98436.22;5024070;28;20025;-66
2023/01/23 10:54:04;;;;;;;6.28;2.70;;;;;;;4.73;49.77;98444.66;5025828;28;20053;-65
2023/01/23 10:56:31;;;;;;;7.05;2.83;;;;;;;4.73;49.40;98442.06;5026035;28;20554;-67
2023/01/23 10:58:59;;;;;;;8.52;3.00;;;;;;;4.77;48.48;98451.22;5037744;28;20430;-67
2023/01/23 11:01:27;;;;;;;8.35;3.08;;;;;;;4.76;48.87;98443.59;5024649;28;20476;-67
2023/01/23 11:03:52;;;;;;;7.72;3.15;;;;;;;4.62;48.85;98408.56;5002882;28;20025;-68
2023/01/23 11:06:24;;;;;;;10.52;2.70;;;;;;;4.92;47.06;98443.31;5040464;28;20487;-67
2023/01/23 11:08:59;;;;;;;6.82;2.83;;;;;;;5.01;46.92;98450.34;5033019;28;20029;-67
2023/01/23 11:11:27;;;;;;;7.15;2.58;;;;;;;5.09;47.54;98444.63;5023059;28;20056;-67
2023/01/23 11:14:15;;;;;;;6.40;3.03;;;;;;;5.08;47.75;98437.84;5009088;28;20059;-66
2023/01/23 11:16:41;;;;;;;7.63;3.35;;;;;;;4.90;48.10;98399.59;5022672;28;20035;-66
2023/01/23 11:19:07;;;;;;;6.93;3.28;;;;;;;5.11;48.03;98433.28;5006904;28;20095;-67
2023/01/23 11:21:38;;;;;;;10.65;3.50;;;;;;;5.13;48.73;98428.00;5016871;28;20029;-67
2023/01/23 11:24:26;;;;;;;6.93;3.47;;;;;;;5.15;48.39;98421.78;5022501;28;20043;-67
2023/01/23 11:27:15;;;;;;;6.28;2.80;;;;;;;5.10;48.72;98421.31;5039902;28;20033;-67
2023/01/23 11:29:52;;;;;;;9.68;3.17;;;;;;;5.19;47.75;98440.44;5024262;28;20024;-67
2023/01/23 11:32:20;;;;;;;8.07;3.03;;;;;;;5.17;49.02;98424.25;5040150;28;20375;-65
2023/01/23 11:34:50;;;;;;;8.43;3.22;;;;;;;5.03;47.76;98411.59;5025603;28;20017;-67
2023/01/23 11:37:48;;;;;;;;;;;;;;;5.42;47.80;98456.75;5010496;28;20021;-67
2023/01/23 11:40:17;;;;;;;6.95;3.45;;;;;;;5.39;48.41;98462.16;5007570;28;20029;-66
2023/01/23 11:42:44;;;;;;;7.15;3.88;;;;;;;5.32;48.79;98448.06;5011973;28;20033;-67
2023/01/23 11:45:28;;;;;;;7.55;3.97;;;;;;;5.44;48.34;98460.03;5042942;28;20688;-67
2023/01/23 11:48:03;;;;;;;7.35;3.58;;;;;;;5.46;48.97;98455.59;5034017;28;20088;-66
2023/01/23 11:50:49;;;;;;;8.30;3.92;;;;;;;5.33;48.13;98452.28;5007729;28;20154;-66
2023/01/23 11:53:34;;;;;;;8.15;4.00;;;;;;;5.47;48.08;98467.53;5034717;28;20025;-66